Galatsi, Greece

2:04 PM EEST on August 31, 2014 (GMT +0300)
Galatsi | Change Station
CLOSE
Current Station
Personal Weather Station
Location: Athens, GALATSI
Elevation: 571 ft
Nearby Weather Stations

Elev 571 ft 38.02 °N, 23.76 °E | Updated 6 seconds ago

Partly Cloudy
Partly Cloudy
86.9 °F
Feels Like 90 °F
N
7.6
Wind Variable Wind from North
Gusts 22.1 mph

Today
High -- | Low -- °F
--% Chance of Precip.
Yesterday
High -- | Low -- °F
Precip. -- in
6:53 AM 7:56 PM
Waxing Crescent, 30% visible
Pressure 29.89 in
Visibility 6.2 miles
Clouds Few 2500 ft
Heat Index 90 °F
Dew Point 67 °F
Humidity 51%
Rainfall 0.00 in
Snow Depth Not available.
UV 9 out of 12
Pollen Not available.
Air Quality Not available.
Flu Activity Not available.
METAR LGEL 311020Z 36012KT 9999 FEW025 31/11 Q1012

More Conditions Fewer Conditions

Pressure 29.89 in
Visibility 6.2 miles
Clouds Few 2500 ft
Heat Index 90 °F
Dew Point 67 °F
Humidity 51%
Rainfall 0.00 in
Snow Depth Not available.
UV 9 out of 12
Pollen Not available.
Air Quality Not available.
Flu Activity Not available.
METAR LGEL 311020Z 36012KT 9999 FEW025 31/11 Q1012

More Conditions Fewer Conditions

10-Day Weather Forecast

Almanac

Astronomy

Aug. 31, 2014 Rise Set
Actual Time 6:53 AM EEST 7:56 PM EEST
Civil Twilight 6:26 AM EEST 8:23 PM EEST
Nautical Twilight 5:54 AM EEST 8:55 PM EEST
Astronomical Twilight 5:21 AM EEST 9:28 PM EEST
Moon 12:15 PM EEST 11:03 PM EEST
Length of Visible Light 13h 56m
Length of Day
13h 02m
Tomorrow will be 2m 20s shorter.
Waxing Crescent, 30% of the Moon is Illuminated
Today
Waxing Crescent
Sep 2
First Quarter
Sep 8
Full
Sep 15
Last Quarter
Sep 24
New

Yesterday's Extremes

Country Highs Country Lows

Community

WunderPhotos

Upload Photos

1,748,837 photos uploaded!

Nearby

Snow Depth

Not available.

Earthquake Activity

City Distance Mag. Time & Date
No recent earthquake activity has been reported nearby.
Minimum magnitude displayed is 2.5.

Coastal Water Temperatures

Place Temperature
No Stations Reporting

Nearby Weather Stations